Flight Track Log - Related Links

Times and Time Zones

All times are in EDT time to prevent confusion due to time zone crossing. See the EGF4247 flight status page for this flight to view local times or setup timezone preferences in your user account.

Time Position Orientation Groundspeed Altitude Reporting Facility
EDT Latitude Longitude Course Direction KTS MPH feet Rate Location/Type
Sun 03:45:30 PM 42.9500 -78.7167 270° West 153 176 1,600  Level Buffalo TRACON
Sun 03:46:13 PM 42.9833 -78.6833 36° Northeast 185 213 2,800 2,097 Climbing Buffalo TRACON
Sun 03:47:13 PM 43.0000 -78.7667 285° West 236 272 5,200 2,218 Climbing Buffalo TRACON
Sun 03:48:00 PM 42.9500 -79.0646 270° West  Level FlightAware Approximate
Sun 03:48:12 PM 43.0000 -78.8500 270° West 267 307 7,200  Level Buffalo TRACON
Sun 03:49:00 PM 42.9595 -79.1806 277° West  Level FlightAware Approximate
Sun 03:49:13 PM 43.0000 -78.9500 270° West 272 313 9,500  Level Buffalo TRACON
Sun 03:50:00 PM 42.9667 -79.2969 270° West  Level FlightAware Approximate
Sun 03:50:13 PM 43.0167 -79.0500 283° West 274 315 11,400  Level Buffalo TRACON
Sun 03:51:13 PM 43.0167 -79.1833 270° West 303 349 13,100 1,368 Climbing Buffalo TRACON
Sun 03:52:07 PM 43.0167 -79.2833 270° West 319 367 14,000 750 Climbing Buffalo TRACON
Sun 03:52:25 PM 43.0000 -79.3167 236° Southwest 320 368 14,000  Level Toronto Center
Sun 03:53:25 PM 43.0167 -79.4500 280° West 360 414 14,000  Level Toronto Center
Sun 03:54:25 PM 43.0167 -79.5833 270° West 370 426 14,000 450 Level Toronto Center
Sun 03:55:25 PM 43.0167 -79.7167 270° West 370 426 14,900 1,150 Climbing Toronto Center
Sun 03:56:25 PM 43.0167 -79.8667 270° West 360 414 16,300 1,450 Climbing Toronto Center
Sun 03:57:25 PM 43.0167 -80.0000 270° West 350 403 17,800 1,200 Climbing Toronto Center
Sun 03:58:25 PM 43.0167 -80.1167 270° West 350 403 18,700 1,200 Climbing Toronto Center
Sun 03:59:25 PM 43.0167 -80.2500 270° West 340 391 20,200 1,450 Climbing Toronto Center
Sun 04:00:25 PM 43.0167 -80.3833 270° West 340 391 21,600 1,450 Climbing Toronto Center
Sun 04:01:25 PM 43.0333 -80.5000 281° West 340 391 23,100 1,500 Climbing Toronto Center
Sun 04:02:25 PM 43.0333 -80.6333 270° West 340 391 24,600 1,513 Climbing Toronto Center
Sun 04:03:24 PM 43.0333 -80.7667 270° West 330 380 26,100 1,513 Climbing Toronto Center
Sun 04:04:24 PM 43.0167 -80.8833 259° West 330 380 27,600 1,400 Climbing Toronto Center
Sun 04:05:24 PM 43.0167 -81.0000 270° West 320 368 28,900 1,300 Climbing Toronto Center
Sun 04:06:24 PM 43.0167 -81.1333 270° West 320 368 30,200 1,150 Climbing Toronto Center
Sun 04:07:24 PM 43.0167 -81.2500 270° West 320 368 31,200 900 Climbing Toronto Center
Sun 04:08:24 PM 43.0167 -81.3667 270° West 320 368 32,000 400 Climbing Toronto Center
Sun 04:09:24 PM 43.0167 -81.5000 270° West 340 391 32,000  Level Toronto Center
Sun 04:10:24 PM 43.0167 -81.6667 270° West 370 426 32,000  Level Toronto Center
Sun 04:11:24 PM 43.0167 -81.8000 270° West 380 437 32,000  Level Toronto Center
Sun 04:12:24 PM 43.0000 -81.9333 260° West 390 449 32,000  Level Toronto Center
Sun 04:13:24 PM 43.0000 -82.1000 270° West 390 449 32,000  Level Toronto Center
Sun 04:14:24 PM 43.0000 -82.2333 270° West 390 449 32,000  Level Toronto Center
Sun 04:15:24 PM 43.0000 -82.3833 270° West 390 449 32,000  Level Toronto Center
Sun 04:16:24 PM 43.0000 -82.5500 270° West 390 449 32,000  Level Toronto Center
Sun 04:17:04 PM 43.0028 -82.6300 273° West 385 443 32,000  Level Cleveland Center
Sun 04:18:04 PM 42.9978 -82.7803 267° West 395 455 32,000  Level Cleveland Center
Sun 04:19:04 PM 42.9886 -82.9303 265° West 400 460 32,000  Level Cleveland Center
Sun 04:20:04 PM 42.9792 -83.0833 265° West 405 466 32,000  Level Cleveland Center
Sun 04:21:04 PM 42.9717 -83.2306 266° West 405 466 32,000  Level Cleveland Center
Sun 04:22:04 PM 42.9619 -83.3833 265° West 405 466 32,000  Level Cleveland Center
Sun 04:23:04 PM 42.9517 -83.5361 265° West 405 466 32,000  Level Cleveland Center
Sun 04:24:04 PM 42.9436 -83.6861 266° West 405 466 32,000  Level Cleveland Center
Sun 04:25:04 PM 42.9331 -83.8417 265° West 405 466 32,000  Level Cleveland Center
Sun 04:26:04 PM 42.9225 -83.9914 265° West 405 466 32,000  Level Cleveland Center
Sun 04:27:04 PM 42.9139 -84.1439 266° West 405 466 32,000  Level Cleveland Center
Sun 04:29:20 PM 42.8911 -84.4764 265° West 404 465 32,000  Level Chicago Center
Sun 04:30:22 PM 42.8758 -84.6589 264° West 405 466 32,000  Level Chicago Center
Sun 04:31:24 PM 42.8600 -84.8100 262° West 404 465 32,000  Level Chicago Center
Sun 04:32:26 PM 42.8442 -84.9617 262° West 404 465 32,000 -624 Level Chicago Center
Sun 04:33:29 PM 42.8283 -85.1108 262° West 401 461 30,700 -1,344 Descending Chicago Center
Sun 04:34:31 PM 42.8117 -85.2625 262° West 405 466 29,200 -1,500 Descending Chicago Center
Sun 04:35:33 PM 42.7947 -85.4144 261° West 405 466 27,600 -1,500 Descending Chicago Center
Sun 04:36:35 PM 42.7756 -85.5650 260° West 404 465 26,100 -1,645 Descending Chicago Center
Sun 04:37:37 PM 42.7417 -85.7472 256° West 409 471 24,200 -1,016 Descending Chicago Center
Sun 04:38:39 PM 42.7136 -85.8994 256° West 412 474 24,000 -290 Descending Chicago Center
Sun 04:39:41 PM 42.6867 -86.0475 256° West 405 466 23,600 -1,306 Descending Chicago Center
Sun 04:40:43 PM 42.6594 -86.1944 256° West 401 461 21,300 -1,742 Descending Chicago Center
Sun 04:41:45 PM 42.6328 -86.3364 256° West 389 448 20,000 -629 Descending Chicago Center
Sun 04:42:47 PM 42.6072 -86.4761 256° West 383 441 20,000  Level Chicago Center
Sun 04:43:49 PM 42.5806 -86.6153 255° West 382 440 20,000 -968 Level Chicago Center
Sun 04:44:51 PM 42.5508 -86.7689 255° West 385 443 18,000 -2,032 Descending Chicago Center
Sun 04:45:53 PM 42.5100 -86.9164 249° West 377 434 15,800 -2,323 Descending Chicago Center
Sun 04:46:55 PM 42.4739 -87.0406 249° West 359 413 13,200 -2,352 Descending Chicago Center
Sun 04:47:58 PM 42.4400 -87.1647 250° West 352 405 10,900 -1,536 Descending Chicago Center
Sun 04:49:00 PM 42.4025 -87.2717 245° Southwest 322 371 10,000 -919 Descending Chicago Center
Sun 04:50:02 PM 42.3717 -87.3600 245° Southwest 267 307 9,000 -1,016 Descending Chicago Center
Sun 04:51:04 PM 42.3406 -87.4508 245° Southwest 255 293 7,900 -1,065 Descending Chicago Center
Sun 04:52:06 PM 42.3053 -87.5458 243° Southwest 237 273 6,800 -1,113 Descending Chicago Center
Sun 04:53:08 PM 42.2658 -87.5986 225° Southwest 204 235 5,600 -871 Descending Chicago Center
Sun 04:54:10 PM 42.2281 -87.6411 220° Southwest 182 209 5,000 -290 Descending Chicago Center
Sun 04:55:12 PM 42.1911 -87.6806 218° Southwest 170 196 5,000 -48 Level Chicago Center
Sun 04:56:14 PM 42.1542 -87.7225 220° Southwest 172 198 4,900 -577 Descending Chicago Center
Sun 04:56:56 PM 42.1167 -87.7500 209° Southwest 174 200 4,000 -1,286 Descending Chicago TRACON

Login

Don't have an account? Register now (free) for customized features, flight alerts, and more!